createdAt,value
2018-09-18T00:02:19.297Z,20.20
2018-09-18T00:05:23.605Z,20.20
2018-09-18T00:08:27.943Z,20.20
2018-09-18T00:11:31.832Z,20.10
2018-09-18T00:14:36.182Z,20.10
2018-09-18T00:17:40.462Z,20.10
2018-09-18T00:20:44.842Z,20.00
2018-09-18T00:23:49.113Z,20.00
2018-09-18T00:26:53.047Z,20.00
2018-09-18T00:29:57.362Z,19.90
2018-09-18T00:33:01.673Z,19.90
2018-09-18T00:36:06.036Z,19.90
2018-09-18T00:39:10.970Z,19.90
2018-09-18T00:42:15.018Z,19.90
2018-09-18T00:45:19.341Z,19.90
2018-09-18T00:48:23.319Z,19.80
2018-09-18T00:51:27.241Z,19.80
2018-09-18T00:54:31.631Z,19.70
2018-09-18T00:57:35.975Z,19.80
2018-09-18T01:00:40.329Z,19.70
2018-09-18T01:03:44.658Z,19.60
2018-09-18T01:06:49.124Z,19.60
2018-09-18T01:09:53.524Z,19.50
2018-09-18T01:12:57.760Z,19.40
2018-09-18T01:16:02.605Z,19.40
2018-09-18T01:19:06.637Z,19.30
2018-09-18T01:22:11.169Z,19.30
2018-09-18T01:25:15.274Z,19.30
2018-09-18T01:28:20.008Z,19.30
2018-09-18T01:31:23.893Z,19.30
2018-09-18T01:34:28.131Z,19.20
2018-09-18T01:37:32.465Z,19.20
2018-09-18T01:40:36.736Z,19.10
2018-09-18T01:43:41.625Z,19.10
2018-09-18T01:46:45.853Z,19.00
2018-09-18T01:49:50.231Z,19.00
2018-09-18T01:52:54.317Z,19.10
2018-09-18T01:55:58.730Z,19.10
2018-09-18T01:59:03.019Z,19.10
2018-09-18T02:02:07.827Z,19.10
2018-09-18T02:05:12.152Z,19.10
2018-09-18T02:08:16.468Z,19.00
2018-09-18T02:11:20.884Z,19.00
2018-09-18T02:14:25.109Z,19.00
2018-09-18T02:17:29.672Z,18.90
2018-09-18T02:20:34.061Z,18.80
2018-09-18T02:23:38.301Z,18.80
2018-09-18T02:26:42.619Z,18.70
2018-09-18T02:29:47.002Z,18.70
2018-09-18T02:32:51.258Z,18.70
2018-09-18T02:35:55.492Z,18.70
2018-09-18T02:38:59.597Z,18.70
2018-09-18T02:42:04.663Z,18.60
2018-09-18T02:45:09.219Z,18.60
2018-09-18T02:48:13.482Z,18.60
2018-09-18T02:51:18.147Z,18.60
2018-09-18T02:54:22.476Z,18.60
2018-09-18T02:57:26.792Z,18.60
2018-09-18T03:00:31.089Z,18.60
2018-09-18T03:03:35.487Z,18.50
2018-09-18T03:06:39.823Z,18.40
2018-09-18T03:09:44.327Z,18.40
2018-09-18T03:12:48.512Z,18.40
2018-09-18T03:15:52.774Z,18.40
2018-09-18T03:18:56.949Z,18.40
2018-09-18T03:22:01.243Z,18.40
2018-09-18T03:25:05.625Z,18.40
2018-09-18T03:28:10.108Z,18.40
2018-09-18T03:31:14.282Z,18.40
2018-09-18T03:34:18.487Z,18.40
2018-09-18T03:37:22.653Z,18.40
2018-09-18T03:40:26.949Z,18.30
2018-09-18T03:43:31.083Z,18.30
2018-09-18T03:46:35.371Z,18.30
2018-09-18T03:49:39.712Z,18.20
2018-09-18T03:52:44.187Z,18.20
2018-09-18T03:55:48.493Z,18.20
2018-09-18T03:58:52.743Z,18.00
2018-09-18T04:01:57.074Z,18.00
2018-09-18T04:05:01.516Z,18.00
2018-09-18T04:08:06.091Z,18.00
2018-09-18T04:11:10.493Z,18.00
2018-09-18T04:14:14.724Z,18.00
2018-09-18T04:17:19.195Z,18.00
2018-09-18T04:20:23.496Z,18.00
2018-09-18T04:23:27.731Z,18.00
2018-09-18T04:26:32.346Z,18.00
2018-09-18T04:29:36.686Z,18.00
2018-09-18T04:32:40.984Z,18.00
2018-09-18T04:35:45.393Z,17.90
2018-09-18T04:38:49.896Z,17.90
2018-09-18T04:41:54.217Z,17.90
2018-09-18T04:44:58.696Z,17.90
2018-09-18T04:48:03.875Z,17.90
2018-09-18T04:51:08.019Z,17.90
2018-09-18T04:54:12.390Z,17.90
2018-09-18T04:57:16.870Z,17.90
2018-09-18T05:00:21.141Z,17.90
2018-09-18T05:03:25.182Z,17.90
2018-09-18T05:06:29.460Z,17.90
2018-09-18T05:09:33.897Z,17.90
2018-09-18T05:12:38.055Z,17.80
2018-09-18T05:15:42.435Z,17.80
2018-09-18T05:18:46.746Z,17.90
2018-09-18T05:21:51.494Z,17.90
2018-09-18T05:24:55.739Z,18.00
2018-09-18T05:27:59.901Z,18.00
2018-09-18T05:31:04.375Z,18.20
2018-09-18T05:34:08.749Z,18.20
2018-09-18T05:37:13.098Z,18.20
2018-09-18T05:40:17.516Z,18.30
2018-09-18T05:43:21.700Z,18.40
2018-09-18T05:46:26.019Z,18.40
2018-09-18T05:49:31.125Z,18.50
2018-09-18T05:52:35.311Z,18.50
2018-09-18T05:55:39.612Z,18.60
2018-09-18T05:58:43.935Z,18.60
2018-09-18T06:01:48.275Z,18.70
2018-09-18T06:04:52.634Z,18.80
2018-09-18T06:07:57.292Z,18.90
2018-09-18T06:11:01.571Z,18.90
2018-09-18T06:14:07.540Z,19.00
2018-09-18T06:17:11.847Z,19.00
2018-09-18T06:20:16.218Z,19.20
2018-09-18T06:23:20.538Z,19.30
2018-09-18T06:26:24.691Z,19.50
2018-09-18T06:29:29.110Z,19.80
2018-09-18T06:32:33.462Z,20.20
2018-09-18T06:35:37.638Z,21.10
2018-09-18T06:38:42.012Z,22.90
2018-09-18T06:41:46.322Z,24.70
2018-09-18T06:44:50.758Z,26.20
2018-09-18T06:47:55.102Z,27.70
2018-09-18T06:50:59.498Z,29.00
2018-09-18T06:54:03.788Z,29.30
2018-09-18T06:57:08.996Z,29.70
2018-09-18T07:00:13.268Z,30.80
2018-09-18T07:03:17.720Z,31.90
2018-09-18T07:06:21.926Z,32.90
2018-09-18T07:09:26.277Z,33.60
2018-09-18T07:12:30.479Z,34.10
2018-09-18T07:15:34.702Z,35.00
2018-09-18T07:18:39.134Z,36.00
2018-09-18T07:21:43.495Z,36.60
2018-09-18T07:24:47.751Z,37.20
2018-09-18T07:27:52.978Z,37.80
2018-09-18T07:30:57.512Z,38.30
2018-09-18T07:34:01.945Z,38.90
2018-09-18T07:37:06.307Z,38.80
2018-09-18T07:40:10.611Z,39.70
2018-09-18T07:43:14.688Z,40.30
2018-09-18T07:46:19.866Z,40.70
2018-09-18T07:49:24.049Z,41.30
2018-09-18T07:52:28.402Z,41.80
2018-09-18T07:55:32.725Z,42.50
2018-09-18T07:58:36.915Z,43.10
2018-09-18T08:01:40.830Z,43.50
2018-09-18T08:04:44.714Z,43.60
2018-09-18T08:07:48.632Z,44.30
2018-09-18T08:10:52.676Z,44.70
2018-09-18T08:13:56.649Z,44.80
2018-09-18T08:17:00.534Z,45.40
2018-09-18T08:20:04.968Z,45.10
2018-09-18T08:23:09.745Z,45.10
2018-09-18T08:26:14.262Z,44.30
2018-09-18T08:29:18.743Z,44.60
2018-09-18T08:32:23.027Z,45.50
2018-09-18T08:35:27.377Z,45.90
2018-09-18T08:38:31.709Z,47.00
2018-09-18T08:41:36.083Z,47.60
2018-09-18T08:44:40.395Z,48.20
2018-09-18T08:47:44.679Z,48.60
2018-09-18T08:50:48.982Z,48.80
2018-09-18T08:53:53.387Z,48.30
2018-09-18T08:56:57.848Z,48.40
2018-09-18T09:00:02.091Z,48.50
2018-09-18T09:03:06.297Z,47.50
2018-09-18T09:06:10.513Z,46.10
2018-09-18T09:09:15.472Z,46.90
2018-09-18T09:12:19.744Z,47.50
2018-09-18T09:15:24.019Z,47.40
2018-09-18T09:18:28.292Z,47.80
2018-09-18T09:21:32.635Z,47.60
2018-09-18T09:24:37.149Z,47.90
2018-09-18T09:27:41.812Z,48.70
2018-09-18T09:30:46.095Z,49.70
2018-09-18T09:33:50.755Z,50.30
2018-09-18T09:36:55.272Z,50.10
2018-09-18T09:39:59.613Z,51.00
2018-09-18T09:43:04.264Z,50.90
2018-09-18T09:46:08.577Z,50.40
2018-09-18T09:49:12.454Z,50.50
2018-09-18T09:52:16.335Z,49.80
2018-09-18T09:55:20.292Z,50.70
2018-09-18T09:58:24.311Z,51.70
2018-09-18T10:01:33.215Z,51.20
2018-09-18T10:04:37.091Z,51.90
2018-09-18T10:07:40.947Z,51.80
2018-09-18T10:10:45.103Z,52.50
2018-09-18T10:13:48.871Z,52.30
2018-09-18T10:16:52.735Z,52.10
2018-09-18T10:19:56.761Z,50.20
2018-09-18T10:23:01.238Z,47.10
2018-09-18T10:26:05.193Z,44.80
2018-09-18T10:29:09.201Z,43.10
2018-09-18T10:32:13.070Z,42.20
2018-09-18T10:35:17.029Z,40.60
2018-09-18T10:38:20.934Z,37.80
2018-09-18T10:41:25.471Z,36.70
2018-09-18T10:44:29.972Z,36.40
2018-09-18T10:47:34.263Z,35.90
2018-09-18T10:50:39.225Z,34.90
2018-09-18T10:53:43.526Z,34.90
2018-09-18T10:56:47.828Z,34.50
2018-09-18T10:59:52.361Z,34.80
2018-09-18T11:02:56.300Z,35.20
2018-09-18T11:06:00.194Z,35.50
2018-09-18T11:09:05.459Z,34.80
2018-09-18T11:12:09.688Z,35.20
2018-09-18T11:15:13.615Z,35.40
2018-09-18T11:18:17.961Z,34.40
2018-09-18T11:21:22.290Z,34.50
2018-09-18T11:24:26.552Z,34.20
2018-09-18T11:27:30.872Z,34.20
2018-09-18T11:30:34.761Z,34.30
2018-09-18T11:33:38.764Z,34.30
2018-09-18T11:36:43.081Z,34.10
2018-09-18T11:39:47.401Z,34.10
2018-09-18T11:42:51.256Z,34.50
2018-09-18T11:45:55.596Z,34.60
2018-09-18T11:48:59.864Z,34.40
2018-09-18T11:52:04.189Z,34.10
2018-09-18T11:55:08.397Z,33.90
2018-09-18T11:58:12.677Z,33.60
2018-09-18T12:01:17.737Z,33.20
2018-09-18T12:04:21.583Z,33.40
2018-09-18T12:07:25.513Z,33.90
2018-09-18T12:10:29.409Z,34.40
2018-09-18T12:13:33.266Z,34.20
2018-09-18T12:16:37.486Z,34.10
2018-09-18T12:19:41.761Z,34.30
2018-09-18T12:22:46.146Z,34.40
2018-09-18T12:25:50.561Z,33.70
2018-09-18T12:28:54.742Z,33.80
2018-09-18T12:31:59.069Z,33.20
2018-09-18T12:35:03.614Z,32.90
2018-09-18T12:38:08.494Z,33.40
2018-09-18T12:41:12.777Z,33.50
2018-09-18T12:44:16.955Z,33.70
2018-09-18T12:47:21.540Z,33.90
2018-09-18T12:50:25.976Z,34.10
2018-09-18T12:53:31.183Z,34.10
2018-09-18T12:56:35.508Z,33.80
2018-09-18T12:59:39.890Z,33.80
2018-09-18T13:02:44.138Z,33.80
2018-09-18T13:05:48.372Z,33.60
2018-09-18T13:08:52.690Z,33.30
2018-09-18T13:11:57.074Z,32.50
2018-09-18T13:15:01.476Z,32.20
2018-09-18T13:18:06.098Z,32.40
2018-09-18T13:21:10.423Z,32.50
2018-09-18T13:24:14.696Z,32.40
2018-09-18T13:27:18.923Z,32.30
2018-09-18T13:30:23.307Z,31.50
2018-09-18T13:33:27.848Z,31.10
2018-09-18T13:36:32.192Z,30.60
2018-09-18T13:39:36.564Z,30.50
2018-09-18T13:42:40.878Z,30.40
2018-09-18T13:45:45.201Z,30.50
2018-09-18T13:48:49.486Z,30.60
2018-09-18T13:51:53.676Z,30.50
2018-09-18T13:54:57.864Z,30.40
2018-09-18T13:58:02.089Z,30.30
2018-09-18T14:01:06.379Z,30.10
2018-09-18T14:04:10.747Z,30.10
2018-09-18T14:07:15.069Z,30.10
2018-09-18T14:10:19.420Z,29.90
2018-09-18T14:13:23.877Z,29.80
2018-09-18T14:16:28.519Z,29.80
2018-09-18T14:19:32.705Z,29.50
2018-09-18T14:22:37.322Z,29.20
2018-09-18T14:25:41.785Z,29.00
2018-09-18T14:28:46.133Z,28.90
2018-09-18T14:31:50.390Z,28.60
2018-09-18T14:34:55.388Z,28.50
2018-09-18T14:37:59.732Z,28.40
2018-09-18T14:41:04.067Z,28.20
2018-09-18T14:44:08.371Z,28.20
2018-09-18T14:47:12.638Z,28.20
2018-09-18T14:50:16.926Z,28.20
2018-09-18T14:53:21.031Z,28.20
2018-09-18T14:56:25.182Z,28.30
2018-09-18T14:59:29.384Z,28.20
2018-09-18T15:02:33.621Z,28.20
2018-09-18T15:05:37.814Z,28.20
2018-09-18T15:08:42.015Z,28.00
2018-09-18T15:11:46.325Z,27.80
2018-09-18T15:14:51.988Z,27.70
2018-09-18T15:17:57.573Z,27.70
2018-09-18T15:21:02.653Z,27.70
2018-09-18T15:24:07.491Z,27.60
2018-09-18T15:27:11.843Z,27.30
2018-09-18T15:30:16.938Z,27.30
2018-09-18T15:33:21.453Z,27.40
2018-09-18T15:36:25.958Z,27.40
2018-09-18T15:39:31.428Z,27.40
2018-09-18T15:42:35.763Z,27.30
2018-09-18T15:45:40.127Z,27.10
2018-09-18T15:48:44.232Z,27.00
2018-09-18T15:51:48.667Z,26.90
2018-09-18T15:54:52.927Z,26.70
2018-09-18T15:57:57.427Z,26.50
2018-09-18T16:01:01.778Z,26.50
2018-09-18T16:04:06.244Z,26.40
2018-09-18T16:07:10.383Z,26.50
2018-09-18T16:10:14.609Z,26.40
2018-09-18T16:13:19.095Z,26.40
2018-09-18T16:16:23.614Z,26.40
2018-09-18T16:19:28.093Z,26.30
2018-09-18T16:22:32.416Z,26.30
2018-09-18T16:25:36.792Z,26.30
2018-09-18T16:28:41.232Z,26.30
2018-09-18T16:31:45.307Z,26.30
2018-09-18T16:34:49.658Z,26.20
2018-09-18T16:37:54.520Z,26.20
2018-09-18T16:40:58.845Z,26.10
2018-09-18T16:44:03.242Z,26.00
2018-09-18T16:47:07.600Z,25.90
2018-09-18T16:50:12.085Z,25.80
2018-09-18T16:53:16.432Z,25.80
2018-09-18T16:56:20.743Z,25.80
2018-09-18T16:59:25.248Z,25.70
2018-09-18T17:02:29.512Z,25.70
2018-09-18T17:05:33.923Z,25.60
2018-09-18T17:08:38.257Z,25.60
2018-09-18T17:11:42.555Z,25.60
2018-09-18T17:14:47.090Z,25.60
2018-09-18T17:17:51.443Z,25.60
2018-09-18T17:20:55.737Z,25.60
2018-09-18T17:24:00.052Z,25.50
2018-09-18T17:27:04.323Z,25.50
2018-09-18T17:30:08.600Z,25.50
2018-09-18T17:33:12.894Z,25.50
2018-09-18T17:36:17.243Z,25.40
2018-09-18T17:39:21.447Z,25.40
2018-09-18T17:42:25.653Z,25.30
2018-09-18T17:45:30.176Z,25.20
2018-09-18T17:48:34.734Z,25.10
2018-09-18T17:51:39.042Z,25.00
2018-09-18T17:54:43.495Z,25.00
2018-09-18T17:57:47.590Z,24.90
2018-09-18T18:00:51.867Z,24.80
2018-09-18T18:03:56.216Z,24.80
2018-09-18T18:07:00.529Z,24.70
2018-09-18T18:10:05.021Z,24.60
2018-09-18T18:13:09.313Z,24.50
2018-09-18T18:16:13.475Z,24.40
2018-09-18T18:19:17.353Z,24.30
2018-09-18T18:22:21.266Z,24.20
2018-09-18T18:25:25.759Z,24.20
2018-09-18T18:28:29.662Z,24.20
2018-09-18T18:31:33.610Z,24.30
2018-09-18T18:34:38.025Z,24.30
2018-09-18T18:37:42.410Z,24.30
2018-09-18T18:40:46.394Z,24.20
2018-09-18T18:43:50.769Z,24.10
2018-09-18T18:46:55.541Z,24.10
2018-09-18T18:49:59.422Z,24.00
2018-09-18T18:53:03.806Z,24.00
2018-09-18T18:56:08.141Z,24.00
2018-09-18T18:59:12.812Z,23.90
2018-09-18T19:02:18.134Z,23.80
2018-09-18T19:05:22.290Z,23.70
2018-09-18T19:08:26.541Z,23.70
2018-09-18T19:11:30.980Z,23.60
2018-09-18T19:14:35.327Z,23.60
2018-09-18T19:17:39.822Z,23.60
2018-09-18T19:20:43.835Z,23.50
2018-09-18T19:23:48.063Z,23.50
2018-09-18T19:26:52.561Z,23.40
2018-09-18T19:29:56.423Z,23.40
2018-09-18T19:33:00.916Z,23.30
2018-09-18T19:36:05.113Z,23.30
2018-09-18T19:39:10.838Z,23.20
2018-09-18T19:42:14.962Z,23.10
2018-09-18T19:45:19.071Z,23.00
2018-09-18T19:48:23.526Z,23.00
2018-09-18T19:51:27.777Z,22.90
2018-09-18T19:54:32.111Z,22.80
2018-09-18T19:57:36.639Z,22.70
2018-09-18T20:00:40.807Z,22.60
2018-09-18T20:03:45.262Z,22.50
2018-09-18T20:06:49.569Z,22.50
2018-09-18T20:09:53.906Z,22.50
2018-09-18T20:12:57.984Z,22.40
2018-09-18T20:16:02.264Z,22.40
2018-09-18T20:19:06.638Z,22.30
2018-09-18T20:22:11.133Z,22.30
2018-09-18T20:25:15.477Z,22.30
2018-09-18T20:28:19.583Z,22.20
2018-09-18T20:31:23.593Z,22.20
2018-09-18T20:34:27.696Z,22.20
2018-09-18T20:37:32.075Z,22.10
2018-09-18T20:40:36.078Z,22.00
2018-09-18T20:43:40.293Z,22.00
2018-09-18T20:46:44.655Z,22.00
2018-09-18T20:49:48.962Z,22.00
2018-09-18T20:52:55.036Z,21.90
2018-09-18T20:55:59.198Z,21.90
2018-09-18T20:59:03.884Z,21.80
2018-09-18T21:02:08.283Z,21.70
2018-09-18T21:05:12.482Z,21.60
2018-09-18T21:08:16.699Z,21.60
2018-09-18T21:11:20.745Z,21.50
2018-09-18T21:14:24.679Z,21.40
2018-09-18T21:17:28.577Z,21.30
2018-09-18T21:20:32.693Z,21.30
2018-09-18T21:23:36.772Z,21.20
2018-09-18T21:26:41.018Z,21.20
2018-09-18T21:29:45.424Z,21.10
2018-09-18T21:32:49.735Z,21.00
2018-09-18T21:35:54.288Z,20.90
2018-09-18T21:38:58.850Z,20.80
2018-09-18T21:42:03.144Z,20.80
2018-09-18T21:45:07.492Z,20.80
2018-09-18T21:48:18.524Z,20.80
2018-09-18T21:51:24.620Z,20.70
2018-09-18T21:54:29.208Z,20.60
2018-09-18T21:57:33.547Z,20.60
2018-09-18T22:00:37.866Z,20.60
2018-09-18T22:03:42.234Z,20.50
2018-09-18T22:06:46.548Z,20.60
2018-09-18T22:09:50.883Z,20.50
2018-09-18T22:12:55.355Z,20.50
2018-09-18T22:15:59.493Z,20.40
2018-09-18T22:19:03.691Z,20.40
2018-09-18T22:22:08.105Z,20.30
2018-09-18T22:25:12.236Z,20.20
2018-09-18T22:28:16.498Z,20.10
2018-09-18T22:31:20.943Z,20.10
2018-09-18T22:34:25.439Z,20.10
2018-09-18T22:37:29.775Z,20.00
2018-09-18T22:40:34.230Z,20.00
2018-09-18T22:43:38.467Z,20.00
2018-09-18T22:46:42.765Z,20.00
2018-09-18T22:49:46.911Z,20.00
2018-09-18T22:52:51.205Z,19.90
2018-09-18T22:55:55.383Z,20.00
2018-09-18T22:58:59.616Z,20.00
2018-09-18T23:02:03.970Z,19.90
2018-09-18T23:05:08.479Z,19.70
2018-09-18T23:08:12.404Z,19.60
2018-09-18T23:11:16.908Z,19.60
2018-09-18T23:14:21.180Z,19.60
2018-09-18T23:17:26.232Z,19.60
2018-09-18T23:20:31.390Z,19.50
2018-09-18T23:23:35.539Z,19.50
2018-09-18T23:26:39.683Z,19.50
2018-09-18T23:29:44.040Z,19.60
2018-09-18T23:32:48.353Z,19.50
2018-09-18T23:35:52.851Z,19.40
2018-09-18T23:38:56.933Z,19.40
2018-09-18T23:42:01.299Z,19.40
2018-09-18T23:45:05.787Z,19.30
2018-09-18T23:48:10.161Z,19.30
2018-09-18T23:51:14.509Z,19.30
2018-09-18T23:54:18.976Z,19.40
2018-09-18T23:57:23.328Z,19.30
